createdAt,value
2022-10-11T00:00:55.425Z,97398.44
2022-10-11T00:01:56.979Z,97388.13
2022-10-11T00:02:59.310Z,97392.03
2022-10-11T00:04:00.908Z,97395.97
2022-10-11T00:05:02.685Z,97389.75
2022-10-11T00:06:06.064Z,97393.59
2022-10-11T00:07:08.079Z,97393.59
2022-10-11T00:08:12.083Z,97394.81
2022-10-11T00:09:16.164Z,97396.75
2022-10-11T00:10:18.815Z,97394.34
2022-10-11T00:11:20.358Z,97391.44
2022-10-11T00:12:21.892Z,97390.94
2022-10-11T00:13:23.528Z,97389.03
2022-10-11T00:14:26.661Z,97387.94
2022-10-11T00:15:28.382Z,97392.63
2022-10-11T00:16:30.098Z,97392.63
2022-10-11T00:17:32.094Z,97391.19
2022-10-11T00:18:33.608Z,97385.47
2022-10-11T00:19:35.140Z,97383.91
2022-10-11T00:20:36.674Z,97392.03
2022-10-11T00:21:38.302Z,97385.91
2022-10-11T00:22:40.689Z,97394.16
2022-10-11T00:23:43.040Z,97390.03
2022-10-11T00:25:03.325Z,97392.44
2022-10-11T00:26:07.489Z,97387.16
2022-10-11T00:27:09.400Z,97381.81
2022-10-11T00:28:10.990Z,97373.66
2022-10-11T00:29:12.847Z,97377.16
2022-10-11T00:30:14.615Z,97374.81
2022-10-11T00:31:16.553Z,97372.88
2022-10-11T00:32:18.341Z,97374.88
2022-10-11T00:33:19.886Z,97371.75
2022-10-11T00:34:21.448Z,97379.38
2022-10-11T00:35:22.970Z,97373.91
2022-10-11T00:36:25.003Z,97375.06
2022-10-11T00:37:26.553Z,97378.91
2022-10-11T00:38:28.270Z,97379.34
2022-10-11T00:39:30.029Z,97374.63
2022-10-11T00:40:31.563Z,97377.22
2022-10-11T00:41:33.246Z,97372.50
2022-10-11T00:42:35.045Z,97371.94
2022-10-11T00:43:36.556Z,97370.31
2022-10-11T00:44:40.046Z,97361.66
2022-10-11T00:45:56.889Z,97365.50
2022-10-11T00:47:01.814Z,97367.44
2022-10-11T00:48:11.648Z,97369.78
2022-10-11T00:49:42.833Z,97370.13
2022-10-11T00:50:44.456Z,97367.81
2022-10-11T00:51:51.203Z,97357.31
2022-10-11T00:52:59.468Z,97360.81
2022-10-11T00:54:02.258Z,97370.91
2022-10-11T00:55:14.381Z,97358.53
2022-10-11T00:56:26.272Z,97369.34
2022-10-11T00:57:31.721Z,97360.09
2022-10-11T00:58:36.344Z,97366.28
2022-10-11T00:59:42.445Z,97370.22
2022-10-11T01:00:44.101Z,97362.44
2022-10-11T01:01:45.789Z,97367.81
2022-10-11T01:02:48.065Z,97370.91
2022-10-11T01:03:49.640Z,97369.06
2022-10-11T01:05:05.893Z,97364.81
2022-10-11T01:06:13.521Z,97367.06
2022-10-11T01:07:16.121Z,97360.81
2022-10-11T01:08:18.272Z,97366.94
2022-10-11T01:09:21.165Z,97368.50
2022-10-11T01:10:22.852Z,97377.41
2022-10-11T01:11:27.217Z,97370.78
2022-10-11T01:12:31.686Z,97368.44
2022-10-11T01:14:17.392Z,97359.88
2022-10-11T01:15:29.022Z,97358.97
2022-10-11T01:16:55.827Z,97365.53
2022-10-11T01:18:11.124Z,97371.41
2022-10-11T01:19:24.909Z,97364.50
2022-10-11T01:20:41.635Z,97366.88
2022-10-11T01:21:55.616Z,97366.78
2022-10-11T01:23:21.857Z,97364.03
2022-10-11T01:24:42.052Z,97360.47
2022-10-11T01:26:02.170Z,97353.66
2022-10-11T01:27:17.803Z,97359.50
2022-10-11T01:28:39.250Z,97350.88
2022-10-11T01:30:03.678Z,97357.06
2022-10-11T01:31:17.041Z,97353.41
2022-10-11T01:32:50.624Z,97350.06
2022-10-11T01:33:59.090Z,97341.38
2022-10-11T01:35:27.998Z,97338.75
2022-10-11T01:36:40.365Z,97342.25
2022-10-11T01:37:55.637Z,97342.97
2022-10-11T01:39:04.481Z,97343.22
2022-10-11T01:40:24.941Z,97342.25
2022-10-11T01:41:36.422Z,97334.56
2022-10-11T01:42:40.054Z,97334.94
2022-10-11T01:43:42.608Z,97328.50
2022-10-11T01:44:47.664Z,97331.66
2022-10-11T01:45:54.604Z,97328.00
2022-10-11T01:46:56.286Z,97330.44
2022-10-11T01:48:12.315Z,97332.50
2022-10-11T01:49:13.832Z,97327.75
2022-10-11T01:50:37.459Z,97335.59
2022-10-11T01:52:06.295Z,97341.84
2022-10-11T01:53:29.477Z,97324.78
2022-10-11T01:54:56.972Z,97336.72
2022-10-11T01:56:40.184Z,97324.88
2022-10-11T01:57:48.234Z,97329.78
2022-10-11T01:59:08.375Z,97325.03
2022-10-11T02:00:25.956Z,97332.53
2022-10-11T02:01:46.285Z,97327.22
2022-10-11T02:02:52.451Z,97332.72
2022-10-11T02:04:15.390Z,97321.66
2022-10-11T02:05:51.756Z,97321.13
2022-10-11T02:07:01.371Z,97320.88
2022-10-11T02:08:12.243Z,97320.59
2022-10-11T02:09:26.753Z,97330.34
2022-10-11T02:10:37.548Z,97322.69
2022-10-11T02:11:39.226Z,97319.66
2022-10-11T02:12:48.376Z,97311.94
2022-10-11T02:14:24.515Z,97324.78
2022-10-11T02:15:30.598Z,97320.44
2022-10-11T02:16:39.117Z,97320.44
2022-10-11T02:17:45.613Z,97323.63
2022-10-11T02:18:51.325Z,97321.44
2022-10-11T02:19:56.438Z,97321.53
2022-10-11T02:21:00.909Z,97315.44
2022-10-11T02:22:08.659Z,97320.84
2022-10-11T02:23:45.707Z,97323.28
2022-10-11T02:24:51.785Z,97312.13
2022-10-11T02:25:56.194Z,97310.56
2022-10-11T02:27:00.025Z,97315.25
2022-10-11T02:28:06.030Z,97312.53
2022-10-11T02:29:12.160Z,97317.25
2022-10-11T02:30:14.989Z,97312.19
2022-10-11T02:31:17.902Z,97309.78
2022-10-11T02:32:21.967Z,97322.34
2022-10-11T02:33:47.958Z,97315.09
2022-10-11T02:34:55.578Z,97320.25
2022-10-11T02:36:06.385Z,97318.47
2022-10-11T02:37:26.718Z,97319.97
2022-10-11T02:38:37.502Z,97322.94
2022-10-11T02:40:04.061Z,97319.09
2022-10-11T02:41:30.271Z,97320.84
2022-10-11T02:42:37.325Z,97324.50
2022-10-11T02:43:44.257Z,97319.97
2022-10-11T02:45:19.117Z,97327.28
2022-10-11T02:46:22.132Z,97320.38
2022-10-11T02:47:23.738Z,97320.66
2022-10-11T02:48:28.516Z,97325.78
2022-10-11T02:49:31.698Z,97325.03
2022-10-11T02:50:33.489Z,97318.38
2022-10-11T02:51:36.111Z,97318.31
2022-10-11T02:52:37.676Z,97321.13
2022-10-11T02:53:39.282Z,97314.69
2022-10-11T02:54:40.815Z,97321.84
2022-10-11T02:55:42.345Z,97324.09
2022-10-11T02:56:43.894Z,97325.31
2022-10-11T02:57:45.579Z,97326.38
2022-10-11T02:58:47.212Z,97326.44
2022-10-11T02:59:48.757Z,97325.06
2022-10-11T03:00:51.005Z,97330.53
2022-10-11T03:01:52.537Z,97334.28
2022-10-11T03:02:54.172Z,97333.50
2022-10-11T03:03:55.784Z,97336.28
2022-10-11T03:04:57.629Z,97336.38
2022-10-11T03:06:01.306Z,97331.66
2022-10-11T03:07:03.598Z,97326.97
2022-10-11T03:08:05.214Z,97331.00
2022-10-11T03:09:07.056Z,97329.88
2022-10-11T03:10:09.016Z,97328.03
2022-10-11T03:11:10.551Z,97316.19
2022-10-11T03:12:12.059Z,97328.63
2022-10-11T03:13:17.899Z,97330.63
2022-10-11T03:14:20.029Z,97326.63
2022-10-11T03:15:21.570Z,97328.09
2022-10-11T03:16:23.086Z,97332.31
2022-10-11T03:17:36.180Z,97324.09
2022-10-11T03:18:38.377Z,97330.34
2022-10-11T03:19:39.906Z,97329.06
2022-10-11T03:20:41.429Z,97328.38
2022-10-11T03:21:43.029Z,97332.91
2022-10-11T03:22:44.543Z,97330.47
2022-10-11T03:23:46.203Z,97331.16
2022-10-11T03:24:47.792Z,97326.00
2022-10-11T03:25:49.310Z,97334.22
2022-10-11T03:26:50.865Z,97332.72
2022-10-11T03:27:52.389Z,97333.25
2022-10-11T03:28:53.912Z,97338.31
2022-10-11T03:29:55.781Z,97338.47
2022-10-11T03:30:57.486Z,97343.88
2022-10-11T03:31:59.403Z,97347.72
2022-10-11T03:33:00.893Z,97343.44
2022-10-11T03:34:02.677Z,97341.63
2022-10-11T03:35:04.786Z,97338.19
2022-10-11T03:36:06.876Z,97340.22
2022-10-11T03:37:08.709Z,97333.25
2022-10-11T03:38:14.197Z,97340.91
2022-10-11T03:39:15.924Z,97348.00
2022-10-11T03:40:17.662Z,97346.31
2022-10-11T03:41:19.247Z,97343.19
2022-10-11T03:42:20.940Z,97343.34
2022-10-11T03:43:22.644Z,97338.13
2022-10-11T03:44:25.219Z,97342.38
2022-10-11T03:45:26.792Z,97338.28
2022-10-11T03:46:28.343Z,97340.00
2022-10-11T03:47:29.861Z,97342.91
2022-10-11T03:48:31.592Z,97336.53
2022-10-11T03:49:33.155Z,97338.97
2022-10-11T03:50:35.313Z,97336.69
2022-10-11T03:51:36.836Z,97338.44
2022-10-11T03:52:38.381Z,97337.84
2022-10-11T03:53:39.912Z,97337.75
2022-10-11T03:54:41.410Z,97333.03
2022-10-11T03:55:43.171Z,97330.59
2022-10-11T03:56:44.718Z,97335.84
2022-10-11T03:57:46.217Z,97337.41
2022-10-11T03:58:47.963Z,97335.84
2022-10-11T03:59:49.589Z,97333.56
2022-10-11T04:00:52.873Z,97339.09
2022-10-11T04:01:54.471Z,97333.03
2022-10-11T04:02:56.101Z,97337.38
2022-10-11T04:03:57.794Z,97334.38
2022-10-11T04:04:59.316Z,97334.88
2022-10-11T04:06:01.398Z,97334.94
2022-10-11T04:07:03.385Z,97331.91
2022-10-11T04:08:09.725Z,97331.97
2022-10-11T04:09:13.465Z,97339.75
2022-10-11T04:10:15.006Z,97333.81
2022-10-11T04:11:16.573Z,97337.66
2022-10-11T04:12:18.169Z,97333.41
2022-10-11T04:13:19.687Z,97332.69
2022-10-11T04:14:21.210Z,97340.88
2022-10-11T04:15:22.818Z,97339.81
2022-10-11T04:16:24.348Z,97338.41
2022-10-11T04:17:25.991Z,97337.28
2022-10-11T04:18:27.498Z,97339.25
2022-10-11T04:19:29.147Z,97338.56
2022-10-11T04:20:30.671Z,97337.72
2022-10-11T04:21:32.392Z,97339.19
2022-10-11T04:22:34.087Z,97333.72
2022-10-11T04:23:35.724Z,97335.47
2022-10-11T04:24:37.296Z,97325.56
2022-10-11T04:25:39.663Z,97324.94
2022-10-11T04:26:41.223Z,97320.44
2022-10-11T04:27:43.026Z,97327.13
2022-10-11T04:28:44.661Z,97333.25
2022-10-11T04:29:46.189Z,97334.09
2022-10-11T04:30:47.742Z,97338.91
2022-10-11T04:31:49.442Z,97335.06
2022-10-11T04:32:51.012Z,97334.03
2022-10-11T04:33:52.611Z,97334.34
2022-10-11T04:34:54.107Z,97341.94
2022-10-11T04:35:56.831Z,97345.69
2022-10-11T04:36:58.415Z,97334.97
2022-10-11T04:37:59.975Z,97340.56
2022-10-11T04:39:01.889Z,97336.09
2022-10-11T04:40:05.401Z,97346.53
2022-10-11T04:41:12.484Z,97337.59
2022-10-11T04:42:14.039Z,97349.78
2022-10-11T04:43:16.795Z,97342.38
2022-10-11T04:44:18.358Z,97350.16
2022-10-11T04:45:21.064Z,97351.38
2022-10-11T04:46:22.767Z,97343.69
2022-10-11T04:47:24.373Z,97345.25
2022-10-11T04:48:25.971Z,97346.81
2022-10-11T04:49:27.535Z,97346.03
2022-10-11T04:50:29.073Z,97338.56
2022-10-11T04:51:30.678Z,97345.44
2022-10-11T04:52:32.287Z,97340.22
2022-10-11T04:53:33.804Z,97334.81
2022-10-11T04:54:35.379Z,97336.38
2022-10-11T04:55:36.913Z,97344.06
2022-10-11T04:56:38.426Z,97345.78
2022-10-11T04:57:39.988Z,97343.72
2022-10-11T04:58:41.604Z,97342.91
2022-10-11T04:59:47.866Z,97345.03
2022-10-11T05:00:51.455Z,97353.66
2022-10-11T05:01:53.510Z,97344.56
2022-10-11T05:02:55.290Z,97356.34
2022-10-11T05:03:56.917Z,97355.72
2022-10-11T05:04:58.689Z,97354.31
2022-10-11T05:06:05.192Z,97352.94
2022-10-11T05:07:07.363Z,97353.09
2022-10-11T05:08:08.932Z,97361.06
2022-10-11T05:09:10.627Z,97357.28
2022-10-11T05:10:12.242Z,97351.97
2022-10-11T05:11:16.922Z,97343.94
2022-10-11T05:12:18.448Z,97349.09
2022-10-11T05:13:20.023Z,97358.06
2022-10-11T05:14:21.551Z,97354.28
2022-10-11T05:15:23.088Z,97351.59
2022-10-11T05:16:24.765Z,97345.47
2022-10-11T05:17:26.310Z,97348.25
2022-10-11T05:18:28.398Z,97350.97
2022-10-11T05:19:30.269Z,97350.06
2022-10-11T05:20:31.772Z,97352.91
2022-10-11T05:21:33.469Z,97346.72
2022-10-11T05:22:35.027Z,97338.97
2022-10-11T05:23:37.263Z,97347.78
2022-10-11T05:24:38.981Z,97349.09
2022-10-11T05:25:40.516Z,97348.81
2022-10-11T05:26:42.045Z,97348.19
2022-10-11T05:27:43.571Z,97340.63
2022-10-11T05:28:45.821Z,97336.00
2022-10-11T05:29:47.443Z,97340.31
2022-10-11T05:30:49.354Z,97341.09
2022-10-11T05:31:50.873Z,97342.13
2022-10-11T05:32:52.468Z,97340.75
2022-10-11T05:33:54.097Z,97344.13
2022-10-11T05:34:55.848Z,97341.84
2022-10-11T05:35:57.426Z,97344.97
2022-10-11T05:36:59.007Z,97345.50
2022-10-11T05:38:00.557Z,97344.47
2022-10-11T05:39:02.116Z,97331.31
2022-10-11T05:40:04.233Z,97350.66
2022-10-11T05:41:06.462Z,97348.22
2022-10-11T05:42:10.035Z,97347.56
2022-10-11T05:43:11.897Z,97355.66
2022-10-11T05:44:13.483Z,97351.41
2022-10-11T05:45:15.062Z,97350.72
2022-10-11T05:46:16.833Z,97351.34
2022-10-11T05:47:18.356Z,97351.28
2022-10-11T05:48:19.882Z,97355.28
2022-10-11T05:49:21.496Z,97357.47
2022-10-11T05:50:24.384Z,97353.81
2022-10-11T05:51:26.300Z,97353.13
2022-10-11T05:52:27.801Z,97363.75
2022-10-11T05:53:30.073Z,97356.59
2022-10-11T05:54:31.749Z,97355.19
2022-10-11T05:55:37.611Z,97358.06
2022-10-11T05:56:39.545Z,97359.38
2022-10-11T05:57:41.146Z,97363.41
2022-10-11T05:58:43.137Z,97357.28
2022-10-11T05:59:44.699Z,97358.16
2022-10-11T06:00:46.955Z,97357.53
2022-10-11T06:01:49.207Z,97357.59
2022-10-11T06:02:50.783Z,97357.06
2022-10-11T06:03:52.948Z,97362.63
2022-10-11T06:04:54.515Z,97352.41
2022-10-11T06:05:57.326Z,97355.25
2022-10-11T06:06:59.009Z,97357.97
2022-10-11T06:08:01.032Z,97353.97
2022-10-11T06:09:02.581Z,97355.81
2022-10-11T06:10:04.883Z,97355.59
2022-10-11T06:11:13.810Z,97362.34
2022-10-11T06:12:15.302Z,97363.09
2022-10-11T06:13:16.857Z,97367.47
2022-10-11T06:14:18.733Z,97367.88
2022-10-11T06:15:20.412Z,97364.03
2022-10-11T06:16:21.933Z,97364.84
2022-10-11T06:17:24.113Z,97369.09
2022-10-11T06:18:25.629Z,97366.47
2022-10-11T06:19:27.674Z,97368.91
2022-10-11T06:20:29.336Z,97364.00
2022-10-11T06:21:31.234Z,97359.88
2022-10-11T06:22:32.889Z,97358.47
2022-10-11T06:23:34.553Z,97367.94
2022-10-11T06:24:36.089Z,97358.38
2022-10-11T06:25:37.799Z,97358.47
2022-10-11T06:26:39.811Z,97360.38
2022-10-11T06:27:41.369Z,97360.22
2022-10-11T06:28:43.262Z,97371.28
2022-10-11T06:29:44.804Z,97375.84
2022-10-11T06:30:46.340Z,97377.47
2022-10-11T06:31:48.868Z,97379.19
2022-10-11T06:32:50.374Z,97381.03
2022-10-11T06:33:51.974Z,97381.94
2022-10-11T06:34:53.535Z,97383.16
2022-10-11T06:36:03.936Z,97385.50
2022-10-11T06:37:05.800Z,97377.31
2022-10-11T06:38:07.425Z,97390.66
2022-10-11T06:39:08.986Z,97382.13
2022-10-11T06:40:11.092Z,97384.91
2022-10-11T06:47:49.168Z,97387.13
2022-10-11T06:48:51.224Z,97385.19
2022-10-11T06:49:52.730Z,97391.94
2022-10-11T06:50:59.926Z,97388.09
2022-10-11T06:52:01.825Z,97391.09
2022-10-11T06:53:03.443Z,97390.22
2022-10-11T06:54:05.336Z,97389.97
2022-10-11T06:55:07.206Z,97394.25
2022-10-11T06:56:11.678Z,97388.22
2022-10-11T06:57:13.254Z,97395.63
2022-10-11T06:58:14.802Z,97389.44
2022-10-11T06:59:16.344Z,97391.72
2022-10-11T07:00:18.064Z,97401.34
2022-10-11T07:01:21.514Z,97399.72
2022-10-11T07:02:25.052Z,97398.94
2022-10-11T07:03:26.885Z,97399.94
2022-10-11T07:04:28.433Z,97402.72
2022-10-11T07:05:32.087Z,97406.66
2022-10-11T07:06:39.975Z,97407.50
2022-10-11T07:07:41.544Z,97403.69
2022-10-11T07:08:43.271Z,97403.91
2022-10-11T07:09:44.785Z,97403.53
2022-10-11T07:10:46.295Z,97405.97
2022-10-11T07:11:48.910Z,97405.41
2022-10-11T07:12:50.452Z,97397.09
2022-10-11T07:13:57.174Z,97393.44
2022-10-11T07:14:58.678Z,97390.13
2022-10-11T07:16:10.000Z,97392.19
2022-10-11T07:17:11.575Z,97386.47
2022-10-11T07:18:13.361Z,97388.19
2022-10-11T07:19:14.989Z,97392.94
2022-10-11T07:20:16.688Z,97388.31
2022-10-11T07:21:18.275Z,97384.19
2022-10-11T07:22:19.810Z,97385.44
2022-10-11T07:23:21.351Z,97389.53
2022-10-11T07:24:23.103Z,97390.72
2022-10-11T07:25:24.676Z,97393.13
2022-10-11T07:26:26.584Z,97388.72
2022-10-11T07:27:28.321Z,97391.91
2022-10-11T07:28:30.778Z,97385.94
2022-10-11T07:29:32.411Z,97386.16
2022-10-11T07:30:34.073Z,97386.31
2022-10-11T07:31:38.099Z,97392.75
2022-10-11T07:32:39.838Z,97385.03
2022-10-11T07:33:41.738Z,97386.22
2022-10-11T07:34:43.749Z,97382.47
2022-10-11T07:35:48.364Z,97384.75
2022-10-11T07:36:50.353Z,97387.75
2022-10-11T07:37:51.888Z,97384.63
2022-10-11T07:38:53.519Z,97385.38
2022-10-11T07:39:55.045Z,97383.97
2022-10-11T07:40:56.638Z,97384.25
2022-10-11T07:41:58.230Z,97379.47
2022-10-11T07:43:00.877Z,97379.69
2022-10-11T07:44:03.366Z,97373.31
2022-10-11T07:45:05.532Z,97380.41
2022-10-11T07:46:07.773Z,97380.16
2022-10-11T07:47:11.454Z,97376.03
2022-10-11T07:48:13.369Z,97381.81
2022-10-11T07:49:15.085Z,97377.59
2022-10-11T07:50:16.942Z,97377.53
2022-10-11T07:51:21.299Z,97383.38
2022-10-11T07:52:22.818Z,97376.97
2022-10-11T07:53:24.348Z,97379.88
2022-10-11T07:54:25.989Z,97379.56
2022-10-11T07:55:27.808Z,97383.00
2022-10-11T07:56:30.062Z,97389.22
2022-10-11T07:57:31.950Z,97385.88
2022-10-11T07:58:33.487Z,97386.81
2022-10-11T07:59:35.081Z,97386.94
2022-10-11T08:00:37.346Z,97382.41
2022-10-11T08:01:38.953Z,97389.50
2022-10-11T08:02:40.696Z,97381.84
2022-10-11T08:03:42.242Z,97382.72
2022-10-11T08:04:43.823Z,97377.28
2022-10-11T08:05:45.697Z,97381.53
2022-10-11T08:06:51.104Z,97379.50
2022-10-11T08:07:55.071Z,97378.00
2022-10-11T08:08:57.439Z,97378.06
2022-10-11T08:09:58.978Z,97376.53
2022-10-11T08:11:00.935Z,97373.34
2022-10-11T08:12:02.506Z,97379.38
2022-10-11T08:13:04.531Z,97385.16
2022-10-11T08:14:09.110Z,97380.22
2022-10-11T08:15:10.968Z,97384.16
2022-10-11T08:16:13.354Z,97378.66
2022-10-11T08:17:14.926Z,97381.63
2022-10-11T08:18:16.619Z,97379.22
2022-10-11T08:19:18.859Z,97380.03
2022-10-11T08:20:20.446Z,97383.63
2022-10-11T08:21:21.995Z,97383.06
2022-10-11T08:22:23.879Z,97374.03
2022-10-11T08:23:25.409Z,97382.19
2022-10-11T08:24:26.979Z,97384.53
2022-10-11T08:25:28.563Z,97377.63
2022-10-11T08:26:30.966Z,97373.19
2022-10-11T08:27:32.498Z,97378.00
2022-10-11T08:28:34.186Z,97383.94
2022-10-11T08:29:35.785Z,97377.38
2022-10-11T08:30:37.337Z,97372.81
2022-10-11T08:31:38.869Z,97370.22
2022-10-11T08:32:40.492Z,97366.75
2022-10-11T08:33:42.748Z,97375.31
2022-10-11T08:34:44.272Z,97376.16
2022-10-11T08:35:46.165Z,97367.31
2022-10-11T08:36:48.628Z,97370.72
2022-10-11T08:37:50.184Z,97364.59
2022-10-11T08:38:51.753Z,97365.00
2022-10-11T08:39:53.304Z,97356.97
2022-10-11T08:40:57.076Z,97365.94
2022-10-11T08:42:06.937Z,97355.56
2022-10-11T08:43:15.316Z,97363.34
2022-10-11T08:45:05.449Z,97365.75
2022-10-11T08:46:04.624Z,97362.00
2022-10-11T08:47:25.788Z,97363.63
2022-10-11T08:48:56.957Z,97355.19
2022-10-11T08:49:59.687Z,97359.91
2022-10-11T08:51:02.670Z,97352.97
2022-10-11T08:52:11.942Z,97354.63
2022-10-11T08:53:28.752Z,97348.91
2022-10-11T08:55:02.538Z,97353.84
2022-10-11T08:56:05.249Z,97348.44
2022-10-11T08:57:09.850Z,97348.56
2022-10-11T08:58:19.548Z,97346.28
2022-10-11T08:59:27.045Z,97342.47
2022-10-11T09:00:32.780Z,97342.44
2022-10-11T09:01:35.857Z,97347.47
2022-10-11T09:03:06.838Z,97350.19
2022-10-11T09:04:06.172Z,97351.78
2022-10-11T09:05:14.172Z,97340.19
2022-10-11T09:06:42.791Z,97342.88
2022-10-11T09:08:09.457Z,97338.97
2022-10-11T09:09:48.993Z,97340.91
2022-10-11T09:11:28.527Z,97342.47
2022-10-11T09:12:51.207Z,97342.56
2022-10-11T09:14:28.419Z,97340.56
2022-10-11T09:15:46.856Z,97342.56
2022-10-11T09:17:18.756Z,97338.66
2022-10-11T09:18:53.185Z,97334.44
2022-10-11T09:20:33.376Z,97338.75
2022-10-11T09:21:59.200Z,97327.41
2022-10-11T09:23:11.778Z,97330.13
2022-10-11T09:24:45.777Z,97334.78
2022-10-11T09:25:47.281Z,97330.94
2022-10-11T09:26:57.524Z,97334.78
2022-10-11T09:28:16.056Z,97329.44
2022-10-11T09:29:29.034Z,97331.06
2022-10-11T09:30:31.558Z,97323.31
2022-10-11T09:31:33.627Z,97322.16
2022-10-11T09:32:39.705Z,97324.94
2022-10-11T09:33:47.308Z,97322.72
2022-10-11T09:34:59.826Z,97328.97
2022-10-11T09:36:12.888Z,97321.66
2022-10-11T09:37:35.451Z,97328.34
2022-10-11T09:38:53.150Z,97312.81
2022-10-11T09:40:10.830Z,97319.09
2022-10-11T09:41:26.984Z,97322.28
2022-10-11T09:42:28.504Z,97321.09
2022-10-11T09:43:30.473Z,97315.16
2022-10-11T09:44:46.046Z,97318.19
2022-10-11T09:45:49.694Z,97316.97
2022-10-11T09:46:53.534Z,97316.38
2022-10-11T09:47:57.117Z,97311.66
2022-10-11T09:49:02.800Z,97303.59
2022-10-11T09:50:14.327Z,97309.91
2022-10-11T09:51:20.718Z,97306.53
2022-10-11T09:52:23.912Z,97296.44
2022-10-11T09:53:55.276Z,97300.13
2022-10-11T09:55:02.210Z,97289.94
2022-10-11T09:56:05.384Z,97298.44
2022-10-11T09:57:19.369Z,97292.97
2022-10-11T09:58:32.089Z,97294.50
2022-10-11T09:59:35.285Z,97289.91
2022-10-11T10:00:37.137Z,97291.44
2022-10-11T10:01:38.800Z,97286.06
2022-10-11T10:02:48.932Z,97283.44
2022-10-11T10:04:07.921Z,97280.00
2022-10-11T10:05:09.429Z,97280.03
2022-10-11T10:06:14.144Z,97274.59
2022-10-11T10:07:15.893Z,97279.31
2022-10-11T10:08:24.468Z,97277.03
2022-10-11T10:09:30.490Z,97280.63
2022-10-11T10:10:41.078Z,97272.53
2022-10-11T10:11:42.797Z,97267.53
2022-10-11T10:12:44.387Z,97278.84
2022-10-11T10:13:56.027Z,97276.50
2022-10-11T10:15:08.089Z,97271.03
2022-10-11T10:16:20.097Z,97275.69
2022-10-11T10:17:21.798Z,97269.09
2022-10-11T10:18:29.873Z,97257.81
2022-10-11T10:19:47.204Z,97265.66
2022-10-11T10:20:57.009Z,97262.59
2022-10-11T10:21:58.690Z,97260.69
2022-10-11T10:23:17.501Z,97268.09
2022-10-11T10:24:37.061Z,97259.97
2022-10-11T10:25:43.328Z,97264.63
2022-10-11T10:27:10.806Z,97257.25
2022-10-11T10:28:22.975Z,97259.59
2022-10-11T10:29:24.569Z,97262.72
2022-10-11T10:30:26.783Z,97264.25
2022-10-11T10:32:12.896Z,97263.09
2022-10-11T10:33:11.785Z,97259.66
2022-10-11T10:34:21.161Z,97257.72
2022-10-11T10:35:48.642Z,97253.41
2022-10-11T10:37:22.231Z,97255.38
2022-10-11T10:38:29.255Z,97254.22
2022-10-11T10:39:50.133Z,97256.97
2022-10-11T10:40:53.840Z,97255.78
2022-10-11T10:41:56.078Z,97257.75
2022-10-11T10:42:58.053Z,97251.91
2022-10-11T10:44:00.632Z,97255.03
2022-10-11T10:45:02.758Z,97254.66
2022-10-11T10:46:26.221Z,97254.25
2022-10-11T10:47:53.248Z,97252.22
2022-10-11T10:49:51.934Z,97257.16
2022-10-11T10:50:58.001Z,97254.00
2022-10-11T10:52:21.058Z,97257.16
2022-10-11T10:53:29.134Z,97254.44
2022-10-11T10:54:57.746Z,97255.63
2022-10-11T10:56:18.073Z,97247.06
2022-10-11T10:57:28.459Z,97253.25
2022-10-11T10:58:52.460Z,97253.25
2022-10-11T11:00:12.862Z,97244.75
2022-10-11T11:01:26.299Z,97239.34
2022-10-11T11:03:03.105Z,97236.25
2022-10-11T11:04:10.599Z,97245.66
2022-10-11T11:05:37.720Z,97242.56
2022-10-11T11:06:54.868Z,97239.03
2022-10-11T11:08:28.879Z,97236.31
2022-10-11T11:09:33.489Z,97236.69
2022-10-11T11:11:02.796Z,97233.91
2022-10-11T11:12:29.424Z,97235.47
2022-10-11T11:14:15.112Z,97227.22
2022-10-11T11:15:41.225Z,97231.13
2022-10-11T11:16:55.844Z,97225.34
2022-10-11T11:18:03.349Z,97220.75
2022-10-11T11:19:29.589Z,97228.47
2022-10-11T11:20:59.010Z,97221.47
2022-10-11T11:22:14.079Z,97219.50
2022-10-11T11:23:15.525Z,97219.88
2022-10-11T11:24:37.607Z,97221.47
2022-10-11T11:25:44.903Z,97217.59
2022-10-11T11:27:01.777Z,97214.53
2022-10-11T11:28:15.194Z,97216.50
2022-10-11T11:29:41.184Z,97219.19
2022-10-11T11:31:01.643Z,97219.97
2022-10-11T11:32:34.832Z,97219.22
2022-10-11T11:33:59.576Z,97218.81
2022-10-11T11:35:07.614Z,97218.00
2022-10-11T11:36:14.391Z,97215.22
2022-10-11T11:37:21.627Z,97216.78
2022-10-11T11:38:35.441Z,97218.34
2022-10-11T11:39:44.729Z,97210.22
2022-10-11T11:40:51.966Z,97213.75
2022-10-11T11:41:56.862Z,97213.75
2022-10-11T11:43:15.332Z,97209.06
2022-10-11T11:44:29.619Z,97205.16
2022-10-11T11:45:54.903Z,97204.41
2022-10-11T11:47:05.517Z,97204.41
2022-10-11T11:48:13.931Z,97206.75
2022-10-11T11:49:25.097Z,97205.97
2022-10-11T11:50:28.641Z,97204.41
2022-10-11T11:51:41.108Z,97194.31
2022-10-11T11:52:45.660Z,97201.31
2022-10-11T11:54:12.117Z,97196.63
2022-10-11T11:55:19.716Z,97191.16
2022-10-11T11:56:33.539Z,97200.53
2022-10-11T11:57:41.116Z,97195.47
2022-10-11T11:58:52.672Z,97197.03
2022-10-11T12:00:06.033Z,97194.66
2022-10-11T12:01:31.553Z,97196.63
2022-10-11T12:02:39.500Z,97193.91
2022-10-11T12:03:48.164Z,97195.84
2022-10-11T12:04:51.173Z,97201.28
2022-10-11T12:06:14.585Z,97203.63
2022-10-11T12:07:20.400Z,97197.41
2022-10-11T12:08:28.200Z,97198.97
2022-10-11T12:09:30.861Z,97199.34
2022-10-11T12:10:50.364Z,97195.06
2022-10-11T12:12:05.795Z,97206.34
2022-10-11T12:13:32.254Z,97200.50
2022-10-11T12:14:36.929Z,97200.53
2022-10-11T12:15:38.998Z,97198.56
2022-10-11T12:17:06.016Z,97199.34
2022-10-11T12:18:17.321Z,97198.19
2022-10-11T12:19:20.365Z,97195.47
2022-10-11T12:20:30.863Z,97197.78
2022-10-11T12:21:40.685Z,97201.69
2022-10-11T12:22:53.973Z,97197.81
2022-10-11T12:23:58.010Z,97198.97
2022-10-11T12:25:20.988Z,97192.75
2022-10-11T12:26:28.595Z,97186.50
2022-10-11T12:27:46.491Z,97185.34
2022-10-11T12:29:18.683Z,97185.72
2022-10-11T12:30:48.225Z,97191.94
2022-10-11T12:32:01.853Z,97181.81
2022-10-11T12:33:13.415Z,97185.72
2022-10-11T12:34:26.781Z,97187.25
2022-10-11T12:35:42.489Z,97182.56
2022-10-11T12:36:47.017Z,97185.69
2022-10-11T12:38:05.767Z,97183.38
2022-10-11T12:39:19.504Z,97176.75
2022-10-11T12:41:00.449Z,97177.91
2022-10-11T12:42:20.800Z,97185.69
2022-10-11T12:43:29.946Z,97177.50
2022-10-11T12:44:31.509Z,97174.78
2022-10-11T12:45:36.356Z,97175.19
2022-10-11T12:46:59.316Z,97182.59
2022-10-11T12:48:11.679Z,97178.31
2022-10-11T12:49:28.993Z,97185.72
2022-10-11T12:51:19.753Z,97183.38
2022-10-11T12:52:34.035Z,97177.13
2022-10-11T12:54:26.624Z,97177.91
2022-10-11T12:55:59.022Z,97173.25
2022-10-11T12:57:12.057Z,97181.44
2022-10-11T12:58:26.946Z,97184.56
2022-10-11T12:59:31.891Z,97182.22
2022-10-11T13:01:03.975Z,97177.97
2022-10-11T13:02:29.909Z,97176.38
2022-10-11T13:03:36.614Z,97177.16
2022-10-11T13:04:38.209Z,97178.72
2022-10-11T13:05:47.714Z,97169.38
2022-10-11T13:06:54.782Z,97167.00
2022-10-11T13:08:02.698Z,97176.31
2022-10-11T13:09:14.741Z,97174.75
2022-10-11T13:10:22.124Z,97180.19
2022-10-11T13:11:29.863Z,97177.84
2022-10-11T13:12:40.496Z,97180.94
2022-10-11T13:13:48.522Z,97184.88
2022-10-11T13:15:05.404Z,97177.88
2022-10-11T13:16:13.100Z,97174.00
2022-10-11T13:17:25.609Z,97182.59
2022-10-11T13:18:27.176Z,97175.56
2022-10-11T13:19:30.464Z,97185.69
2022-10-11T13:20:37.518Z,97185.69
2022-10-11T13:21:42.150Z,97187.22